logo Eve Who17,488,386 Characters
829,366 Corporations
9,098 Alliances

Home Pilots Corporations Alliances FAQ 

corp logo
Name:Debitum Naturae
Ticker:[DMNA]
CEO:batloard
Members:69
Avg. Sec.:2.5
7 Day Delta:-25
Activity:Quite Active
LinkszKillboard
Website
Description: 
Diplomatic Contacts:
Samuel Cynic EU
Josshhh EU
Sirch'Opher Mandalore US
For any Personnel or Recuitment issues please contact our head of HR: Samuel Cynic
Recruitment:
DMNA members will not ask you for isk/assets/anything else to join the corp. If they do, contact a diplo.
Debitum Naturae - DMNA - Get Tears, Money, More Tears?

So we are back.
Kalashni Kitty,
Best Kitty.
Smatri v local, ne na etet bio!
Diplomatic Contact: http://www.youtube.com/watch?v=BQAKRw6mToA
Safer Red,
Then Blue.
Carebears and Macro's Beware.
Bring your blob, your carebears, your farmers.
We will rape you as soon as your masters leave.
Woof Woof, Doggie. And don't forget to fetch the mail.
Attrition; The act of burning your space down around you.
Your carrier, it defected..
You can't use our space just because you are blue.
A Squatter > we didnt want space just place to stay and pvp and get some isk so but u dont want neighbour and willing to enforce it on a scale which makes most genocides look innocent so we dont wanna fight that.
https://www.youtube.com/watch?v=tB9Gqd4mV6k&noredirect=1
Last Updated: 2019-05-21 20:37:29 | 1576307093

 Name JoinedLeft
char portraitHydroponiccorp logo2019/05/11 01:062019/05/11 22:18
char portraitxxresartusxxcorp logo2019/05/11 01:052019/05/11 22:26
char portraitxxWhiskyxxcorp logo2019/05/11 01:022019/05/11 22:22
char portraitada Chongcorp logo2019/05/10 15:202019/05/11 21:53
char portraitgeneral Sparkscorp logo2019/05/10 02:042019/05/12 01:18
char portraitField Hospitalcorp logo2019/05/03 17:092019/05/11 22:19
char portraitSkylarr Greycorp logo2019/05/02 19:29
char portraitBoltrancorp logo2019/05/01 23:342019/05/11 20:27
char portraitAnkan Uitohcorp logo2019/05/01 22:262019/05/11 20:12
char portraitTraveth Drakcorp logo2019/05/01 22:242019/05/11 20:12
char portraitMarquetio Severassecorp logo2019/04/28 14:442019/05/11 21:15
char portraitNigel Rothbonecorp logo2019/04/28 14:422019/05/11 21:11
char portraitHolyShnikeze Farleycorp logo2019/04/28 14:402019/05/11 20:41
char portraitJarren Keff Cheliencorp logo2019/04/28 04:032019/05/11 21:17
char portraitJakin Afircorp logo2019/04/27 04:092019/05/11 23:37
char portraitunknown 3568corp logo2019/04/25 00:212019/05/03 13:48
char portraitBondolo Sotkencorp logo2019/04/21 18:262019/05/11 21:17
char portraitTheResearchGodcorp logo2019/04/21 18:262019/05/11 21:17
char portraitWarm Kittencorp logo2019/04/19 19:08
char portraitfrostedflakescorp logo2019/04/19 19:06
char portraitanubus2112corp logo2019/04/16 00:15
char portraitDixon Zidercorp logo2019/03/26 01:282019/05/11 20:33
char portraitJess Kelloggcorp logo2019/03/16 04:502019/05/11 21:03
char portraitMeldrin Enderascorp logo2019/03/08 02:592019/05/11 20:37
char portraitPippircorp logo2019/03/08 02:592019/05/11 20:36
char portraitAltenoracorp logo2019/03/08 02:592019/05/11 20:38
char portraitThaer Deathorcorp logo2019/03/04 19:57
char portraitMakin DaMoneycorp logo2019/03/03 14:482019/04/20 18:57
char portraitPablo Buchinicorp logo2019/03/01 07:282019/05/12 18:47
char portraitShaft UrDaMnRiGhTcorp logo2019/02/26 03:432019/02/27 03:23
char portraitDIxon Siidercorp logo2019/02/25 18:222019/05/11 20:25
char portraitDark SIgncorp logo2019/02/25 02:522019/05/12 18:47
char portraitMarquetio Severassecorp logo2019/02/22 17:352019/03/21 20:37
char portraitNigel Rothbonecorp logo2019/02/22 17:352019/03/21 20:38
char portraitHolyShnikeze Farleycorp logo2019/02/22 17:342019/03/21 20:37
char portraitSesh Drakcorp logo2019/02/19 17:212019/05/11 20:32
char portraitJack MckOffcorp logo2019/02/19 17:212019/05/11 20:32
char portraitO'Neill 01corp logo2019/02/19 04:142019/02/20 23:42
char portraitHelldunks or Blueballscorp logo2019/02/18 21:522019/05/11 20:35
char portraitMuritorcorp logo2019/02/18 21:522019/05/11 21:25
char portraitPatriotic Poljuscorp logo2019/02/18 21:522019/05/11 20:29
char portraitFoxie Koskanaikencorp logo2019/02/18 21:522019/05/11 20:28
char portraitaser09corp logo2019/02/18 21:512019/05/11 22:23
char portraitShelby Watkins PowerRangercorp logo2019/02/18 21:512019/05/11 21:13
char portraitKinght Watchmancorp logo2019/02/18 21:502019/05/11 22:18
char portraitMasterpettittcorp logo2019/02/18 21:502019/05/11 22:18
char portraitRahra Massaricorp logo2019/02/18 21:412019/05/11 20:29
char portraitmastersmithycorp logo2019/02/18 19:422019/05/11 22:18
char portraitLorelai Aeoncorp logo2019/02/10 21:272019/05/11 22:58
char portraitTorpenski Farplaincorp logo2019/02/10 21:232019/05/11 22:44
char portraitToresca Farplaincorp logo2019/02/10 21:192019/05/11 22:45
char portraitCorbyn Krispincorp logo2019/02/10 21:172019/05/11 22:46
char portraitCordonski Farplaincorp logo2019/02/10 20:592019/05/11 22:37
char portraitDragonfyrescorp logo2019/02/05 13:332019/05/12 01:10
char portraitStarfyrescorp logo2019/02/05 13:332019/05/12 01:15
char portraitnomad deltacorp logo2019/01/30 18:492019/02/28 01:55
char portraitFey TheBuildercorp logo2019/01/30 05:222019/03/09 02:40
char portraitZack Mitchelcorp logo2019/01/25 18:552019/02/28 02:01
char portraitAnthony Mongcorp logo2019/01/20 14:002019/03/09 04:33
char portraitada Chongcorp logo2019/01/20 13:462019/03/09 22:04

Page: 1 2 ... 22 ... 43 44
Current Members Leave History

Any pilots, corporations, or alliances that relate to actual people or entities are purely coincidental.
8q/53ms Disclaimer A / C Brought to you by: Squizz Caphinator Forum Thread
EVE Online and the EVE logo are the registered trademarks of CCP hf. All rights are reserved worldwide. All other trademarks are the property of their respective owners. EVE Online, the EVE logo, EVE and all associated logos and designs are the intellectual property of CCP hf. All artwork, screenshots, characters, vehicles, storylines, world facts or other recognizable features of the intellectual property relating to these trademarks are likewise the intellectual property of CCP hf. CCP hf. has granted permission to evewho.com to use EVE Online and all associated logos and designs for promotional and information purposes on its website but does not endorse, and is not in any way affiliated with, evewho.com. CCP is in no way responsible for the content on or functioning of this website, nor can it be liable for any damage arising from the use of this website.